createdAt,value
2023-05-12T00:00:31.834Z,30.15
2023-05-12T00:01:31.891Z,30.11
2023-05-12T00:02:32.035Z,30.15
2023-05-12T00:03:32.219Z,30.12
2023-05-12T00:04:32.012Z,30.13
2023-05-12T00:05:32.014Z,30.12
2023-05-12T00:06:32.067Z,30.08
2023-05-12T00:07:32.128Z,30.06
2023-05-12T00:08:32.180Z,30.05
2023-05-12T00:09:32.225Z,30.09
2023-05-12T00:10:32.271Z,30.03
2023-05-12T00:11:32.305Z,30.03
2023-05-12T00:12:32.369Z,30.02
2023-05-12T00:13:32.454Z,30.01
2023-05-12T00:14:32.472Z,30.02
2023-05-12T00:15:32.532Z,29.96
2023-05-12T00:16:32.656Z,30.01
2023-05-12T00:17:32.664Z,29.95
2023-05-12T00:18:32.688Z,29.96
2023-05-12T00:19:32.721Z,29.97
2023-05-12T00:20:32.754Z,30.03
2023-05-12T00:21:32.784Z,29.97
2023-05-12T00:22:32.823Z,29.98
2023-05-12T00:23:32.760Z,29.99
2023-05-12T00:24:32.767Z,30.02
2023-05-12T00:25:32.770Z,29.99
2023-05-12T00:26:32.743Z,30.05
2023-05-12T00:27:32.726Z,30.02
2023-05-12T00:28:32.732Z,30.08
2023-05-12T00:29:32.716Z,30.03
2023-05-12T00:30:32.749Z,30.06
2023-05-12T00:31:32.804Z,30.05
2023-05-12T00:32:32.809Z,30.10
2023-05-12T00:33:32.842Z,30.10
2023-05-12T00:34:32.877Z,30.10
2023-05-12T00:35:32.928Z,30.10
2023-05-12T00:36:33.024Z,30.08
2023-05-12T00:37:33.026Z,30.10
2023-05-12T00:38:33.072Z,30.12
2023-05-12T00:39:33.096Z,30.09
2023-05-12T00:40:33.144Z,30.13
2023-05-12T00:41:33.177Z,30.10
2023-05-12T00:42:33.198Z,30.10
2023-05-12T00:43:33.242Z,30.10
2023-05-12T00:44:33.333Z,30.14
2023-05-12T00:45:33.376Z,30.12
2023-05-12T00:46:33.348Z,30.13
2023-05-12T00:47:33.426Z,30.14
2023-05-12T00:48:33.443Z,30.19
2023-05-12T00:49:33.497Z,30.16
2023-05-12T00:50:33.524Z,30.17
2023-05-12T00:51:33.565Z,30.17
2023-05-12T00:52:33.597Z,30.16
2023-05-12T00:53:47.684Z,30.14
2023-05-12T00:54:34.626Z,30.11
2023-05-12T00:55:33.611Z,30.13
2023-05-12T00:56:34.087Z,30.21
2023-05-12T00:57:33.581Z,30.16
2023-05-12T00:58:33.574Z,30.18
2023-05-12T00:59:33.571Z,30.17
2023-05-12T01:00:33.556Z,30.20
2023-05-12T01:01:33.660Z,30.20
2023-05-12T01:02:33.626Z,30.21
2023-05-12T01:03:33.768Z,30.15
2023-05-12T01:04:33.651Z,30.18
2023-05-12T01:05:33.695Z,30.20
2023-05-12T01:06:33.715Z,30.21
2023-05-12T01:07:33.908Z,30.20
2023-05-12T01:08:33.804Z,30.17
2023-05-12T01:09:33.833Z,30.23
2023-05-12T01:10:33.903Z,30.20
2023-05-12T01:11:33.943Z,30.21
2023-05-12T01:12:33.960Z,30.23
2023-05-12T01:13:33.983Z,30.26
2023-05-12T01:14:34.025Z,30.24
2023-05-12T01:15:34.065Z,30.21
2023-05-12T01:16:34.116Z,30.23
2023-05-12T01:17:34.260Z,30.21
2023-05-12T01:18:34.216Z,30.24
2023-05-12T01:19:34.214Z,30.24
2023-05-12T01:20:34.262Z,30.21
2023-05-12T01:21:34.338Z,30.29
2023-05-12T01:22:34.322Z,30.25
2023-05-12T01:23:34.393Z,30.27
2023-05-12T01:24:34.412Z,30.26
2023-05-12T01:25:34.437Z,30.27
2023-05-12T01:26:34.526Z,30.24
2023-05-12T01:27:34.553Z,30.29
2023-05-12T01:28:34.622Z,30.26
2023-05-12T01:29:34.605Z,30.24
2023-05-12T01:30:34.798Z,30.23
2023-05-12T01:31:34.877Z,30.23
2023-05-12T01:32:34.841Z,30.24
2023-05-12T01:33:34.785Z,30.28
2023-05-12T01:34:34.832Z,30.30
2023-05-12T01:35:34.897Z,30.28
2023-05-12T01:36:35.095Z,30.33
2023-05-12T01:37:35.009Z,30.31
2023-05-12T01:38:35.101Z,30.30
2023-05-12T01:39:35.025Z,30.34
2023-05-12T01:40:35.112Z,30.27
2023-05-12T01:41:35.123Z,30.28
2023-05-12T01:42:35.170Z,30.28
2023-05-12T01:43:35.240Z,30.34
2023-05-12T01:44:35.273Z,30.29
2023-05-12T01:45:35.263Z,30.27
2023-05-12T01:46:35.284Z,30.32
2023-05-12T01:47:35.215Z,30.30
2023-05-12T01:48:35.206Z,30.34
2023-05-12T01:49:35.178Z,30.32
2023-05-12T01:50:35.172Z,30.30
2023-05-12T01:51:35.204Z,30.34
2023-05-12T01:52:35.165Z,30.28
2023-05-12T01:53:35.195Z,30.34
2023-05-12T01:54:35.237Z,30.32
2023-05-12T01:55:35.250Z,30.34
2023-05-12T01:56:35.289Z,30.36
2023-05-12T01:57:35.369Z,30.35
2023-05-12T01:58:35.429Z,30.35
2023-05-12T01:59:35.431Z,30.38
2023-05-12T02:00:35.488Z,30.36
2023-05-12T02:01:35.567Z,30.35
2023-05-12T02:02:35.599Z,30.34
2023-05-12T02:03:35.639Z,30.36
2023-05-12T02:04:35.618Z,30.31
2023-05-12T02:05:35.661Z,30.34
2023-05-12T02:06:35.726Z,30.36
2023-05-12T02:07:35.773Z,30.37
2023-05-12T02:08:35.792Z,30.34
2023-05-12T02:09:35.850Z,30.36
2023-05-12T02:10:35.909Z,30.38
2023-05-12T02:11:35.968Z,30.42
2023-05-12T02:12:36.002Z,30.39
2023-05-12T02:13:36.103Z,30.41
2023-05-12T02:14:36.110Z,30.38
2023-05-12T02:15:36.144Z,30.44
2023-05-12T02:16:36.220Z,30.39
2023-05-12T02:17:36.347Z,30.42
2023-05-12T02:18:36.295Z,30.36
2023-05-12T02:19:36.349Z,30.35
2023-05-12T02:20:36.391Z,30.41
2023-05-12T02:21:36.408Z,30.38
2023-05-12T02:22:36.478Z,30.39
2023-05-12T02:23:36.508Z,30.40
2023-05-12T02:24:36.530Z,30.40
2023-05-12T02:25:36.550Z,30.45
2023-05-12T02:26:36.556Z,30.43
2023-05-12T02:27:36.585Z,30.41
2023-05-12T02:28:36.627Z,30.42
2023-05-12T02:29:36.626Z,30.41
2023-05-12T02:30:36.654Z,30.39
2023-05-12T02:31:36.711Z,30.42
2023-05-12T02:32:36.754Z,30.43
2023-05-12T02:33:36.875Z,30.43
2023-05-12T02:34:36.874Z,30.45
2023-05-12T02:35:37.606Z,30.40
2023-05-12T02:36:37.638Z,30.42
2023-05-12T02:37:36.940Z,30.43
2023-05-12T02:38:36.982Z,30.40
2023-05-12T02:39:36.998Z,30.42
2023-05-12T02:40:37.047Z,30.38
2023-05-12T02:41:37.079Z,30.29
2023-05-12T02:42:37.221Z,30.25
2023-05-12T02:43:38.167Z,30.13
2023-05-12T02:44:37.203Z,30.08
2023-05-12T02:45:37.253Z,29.80
2023-05-12T02:46:37.237Z,29.64
2023-05-12T02:47:37.286Z,29.52
2023-05-12T02:48:37.227Z,29.44
2023-05-12T02:49:37.240Z,29.36
2023-05-12T02:50:38.126Z,29.33
2023-05-12T02:51:37.620Z,29.24
2023-05-12T02:52:37.205Z,29.21
2023-05-12T02:53:37.173Z,29.17
2023-05-12T02:54:38.159Z,29.08
2023-05-12T02:55:37.215Z,29.10
2023-05-12T02:56:37.633Z,28.94
2023-05-12T02:57:38.131Z,28.95
2023-05-12T02:58:37.228Z,28.89
2023-05-12T02:59:37.342Z,28.94
2023-05-12T03:00:37.258Z,28.90
2023-05-12T03:01:37.231Z,28.81
2023-05-12T03:02:37.319Z,28.80
2023-05-12T03:03:38.406Z,28.68
2023-05-12T03:04:37.226Z,28.74
2023-05-12T03:05:37.237Z,28.73
2023-05-12T03:06:37.631Z,28.66
2023-05-12T03:07:37.237Z,28.58
2023-05-12T03:08:37.198Z,28.58
2023-05-12T03:09:37.331Z,28.59
2023-05-12T03:10:37.250Z,28.60
2023-05-12T03:11:37.233Z,28.43
2023-05-12T03:12:37.246Z,28.43
2023-05-12T03:13:37.239Z,28.37
2023-05-12T03:14:37.166Z,28.41
2023-05-12T03:15:37.222Z,28.45
2023-05-12T03:16:37.159Z,28.34
2023-05-12T03:17:37.317Z,28.44
2023-05-12T03:18:37.305Z,28.47
2023-05-12T03:19:37.256Z,28.39
2023-05-12T03:20:37.249Z,28.30
2023-05-12T03:21:37.322Z,28.29
2023-05-12T03:22:38.150Z,28.30
2023-05-12T03:23:37.257Z,28.31
2023-05-12T03:24:37.237Z,28.23
2023-05-12T03:25:38.154Z,28.21
2023-05-12T03:26:37.271Z,28.28
2023-05-12T03:27:38.158Z,28.10
2023-05-12T03:28:37.269Z,28.15
2023-05-12T03:29:37.271Z,28.15
2023-05-12T03:30:37.288Z,28.15
2023-05-12T03:31:37.696Z,28.24
2023-05-12T03:32:37.356Z,28.14
2023-05-12T03:33:37.309Z,28.06
2023-05-12T03:34:38.130Z,28.11
2023-05-12T03:35:37.328Z,28.08
2023-05-12T03:36:37.334Z,28.09
2023-05-12T03:37:37.311Z,28.12
2023-05-12T03:38:37.330Z,28.09
2023-05-12T03:39:38.138Z,28.16
2023-05-12T03:40:37.330Z,28.12
2023-05-12T03:41:37.326Z,28.12
2023-05-12T03:42:37.325Z,28.15
2023-05-12T03:43:37.346Z,28.10
2023-05-12T03:44:37.322Z,28.15
2023-05-12T03:45:37.328Z,28.19
2023-05-12T03:46:37.542Z,28.23
2023-05-12T03:47:37.588Z,28.25
2023-05-12T03:48:37.338Z,28.16
2023-05-12T03:49:37.317Z,28.18
2023-05-12T03:50:37.326Z,28.11
2023-05-12T03:51:37.409Z,28.12
2023-05-12T03:52:38.137Z,27.99
2023-05-12T03:53:37.458Z,28.05
2023-05-12T03:54:38.193Z,28.05
2023-05-12T03:55:37.339Z,27.99
2023-05-12T03:56:37.311Z,28.01
2023-05-12T03:57:37.311Z,27.99
2023-05-12T03:58:37.349Z,27.93
2023-05-12T03:59:37.349Z,27.98
2023-05-12T04:00:37.316Z,28.01
2023-05-12T04:01:37.742Z,27.94
2023-05-12T04:02:38.196Z,27.90
2023-05-12T04:03:37.453Z,27.95
2023-05-12T04:04:37.310Z,27.94
2023-05-12T04:05:37.331Z,27.92
2023-05-12T04:06:37.677Z,27.88
2023-05-12T04:07:37.340Z,27.82
2023-05-12T04:08:38.956Z,27.87
2023-05-12T04:09:37.416Z,27.92
2023-05-12T04:10:37.319Z,27.95
2023-05-12T04:11:37.375Z,28.03
2023-05-12T04:12:37.318Z,28.05
2023-05-12T04:13:38.145Z,28.16
2023-05-12T04:14:42.784Z,28.19
2023-05-12T04:15:38.296Z,28.17
2023-05-12T04:16:37.358Z,28.21
2023-05-12T04:17:37.348Z,28.18
2023-05-12T04:18:38.219Z,28.14
2023-05-12T04:19:37.368Z,28.09
2023-05-12T04:20:37.408Z,28.12
2023-05-12T04:21:37.671Z,28.03
2023-05-12T04:22:38.153Z,28.06
2023-05-12T04:23:37.362Z,28.03
2023-05-12T04:24:37.317Z,28.02
2023-05-12T04:25:37.414Z,28.17
2023-05-12T04:26:37.362Z,28.17
2023-05-12T04:27:38.172Z,28.24
2023-05-12T04:28:38.152Z,28.30
2023-05-12T04:29:37.326Z,28.37
2023-05-12T04:30:37.454Z,28.44
2023-05-12T04:31:37.428Z,28.55
2023-05-12T04:32:37.317Z,28.56
2023-05-12T04:33:37.385Z,28.56
2023-05-12T04:34:37.337Z,28.63
2023-05-12T04:35:37.357Z,28.58
2023-05-12T04:36:37.352Z,28.70
2023-05-12T04:37:37.687Z,28.72
2023-05-12T04:38:37.415Z,28.74
2023-05-12T04:39:37.405Z,28.78
2023-05-12T04:40:37.318Z,28.75
2023-05-12T04:41:37.529Z,28.75
2023-05-12T04:42:37.678Z,28.80
2023-05-12T04:44:37.344Z,28.85
2023-05-12T04:45:37.396Z,28.81
2023-05-12T04:46:37.471Z,28.91
2023-05-12T04:47:37.435Z,28.89
2023-05-12T04:48:37.452Z,28.95
2023-05-12T04:49:37.372Z,29.04
2023-05-12T04:50:37.427Z,29.00
2023-05-12T04:51:37.247Z,28.99
2023-05-12T04:52:37.357Z,29.03
2023-05-12T04:53:37.266Z,28.99
2023-05-12T04:54:37.410Z,28.96
2023-05-12T04:55:37.421Z,28.96
2023-05-12T04:56:37.424Z,29.07
2023-05-12T04:57:37.331Z,29.01
2023-05-12T04:58:37.366Z,29.09
2023-05-12T04:59:38.137Z,29.05
2023-05-12T05:00:37.422Z,29.09
2023-05-12T05:01:37.448Z,29.05
2023-05-12T05:02:37.454Z,29.09
2023-05-12T05:03:37.644Z,29.16
2023-05-12T05:04:38.179Z,29.17
2023-05-12T05:05:37.465Z,29.12
2023-05-12T05:06:37.450Z,29.16
2023-05-12T05:07:37.392Z,29.12
2023-05-12T05:08:37.413Z,29.13
2023-05-12T05:09:37.381Z,29.11
2023-05-12T05:10:37.385Z,29.14
2023-05-12T05:11:38.220Z,29.09
2023-05-12T05:12:37.443Z,29.15
2023-05-12T05:13:37.405Z,29.17
2023-05-12T05:14:37.418Z,29.15
2023-05-12T05:15:37.445Z,29.20
2023-05-12T05:16:37.425Z,29.15
2023-05-12T05:17:37.498Z,29.17
2023-05-12T05:18:37.417Z,29.14
2023-05-12T05:19:53.097Z,29.21
2023-05-12T05:21:37.453Z,29.14
2023-05-12T05:22:37.698Z,29.11
2023-05-12T05:23:37.428Z,29.14
2023-05-12T05:24:37.412Z,29.15
2023-05-12T05:25:37.371Z,29.10
2023-05-12T05:26:37.457Z,29.13
2023-05-12T05:27:37.418Z,29.17
2023-05-12T05:28:37.409Z,29.14
2023-05-12T05:29:37.412Z,29.27
2023-05-12T05:30:37.488Z,29.20
2023-05-12T05:31:37.495Z,29.22
2023-05-12T05:32:37.860Z,29.15
2023-05-12T05:33:37.424Z,29.16
2023-05-12T05:34:37.513Z,29.25
2023-05-12T05:35:40.184Z,29.18
2023-05-12T05:36:37.501Z,29.22
2023-05-12T05:37:37.476Z,29.28
2023-05-12T05:38:38.232Z,29.27
2023-05-12T05:39:37.382Z,29.28
2023-05-12T05:40:51.557Z,29.21
2023-05-12T05:41:38.426Z,29.28
2023-05-12T05:42:38.306Z,29.30
2023-05-12T05:43:38.409Z,29.30
2023-05-12T05:44:38.462Z,29.34
2023-05-12T05:45:37.506Z,29.26
2023-05-12T05:46:38.258Z,29.30
2023-05-12T05:47:37.672Z,29.26
2023-05-12T05:48:37.470Z,29.30
2023-05-12T05:49:39.217Z,29.37
2023-05-12T05:50:38.195Z,29.20
2023-05-12T05:51:37.571Z,28.56
2023-05-12T05:52:37.703Z,28.34
2023-05-12T05:53:37.519Z,28.32
2023-05-12T05:54:37.526Z,28.30
2023-05-12T05:55:37.623Z,28.26
2023-05-12T05:56:38.227Z,28.43
2023-05-12T05:57:37.519Z,28.52
2023-05-12T05:58:37.517Z,28.60
2023-05-12T05:59:37.562Z,28.71
2023-05-12T06:00:37.588Z,28.80
2023-05-12T06:01:37.618Z,28.97
2023-05-12T06:02:37.766Z,29.09
2023-05-12T06:03:37.737Z,29.14
2023-05-12T06:04:38.200Z,29.22
2023-05-12T06:05:37.708Z,29.25
2023-05-12T06:06:37.682Z,29.39
2023-05-12T06:07:37.715Z,29.50
2023-05-12T06:08:37.735Z,29.64
2023-05-12T06:09:37.747Z,29.74
2023-05-12T06:10:37.825Z,29.77
2023-05-12T06:11:37.823Z,29.79
2023-05-12T06:12:37.857Z,29.95
2023-05-12T06:13:37.871Z,29.96
2023-05-12T06:14:37.897Z,30.04
2023-05-12T06:15:37.912Z,30.04
2023-05-12T06:16:37.966Z,30.08
2023-05-12T06:17:38.409Z,29.96
2023-05-12T06:18:38.306Z,29.88
2023-05-12T06:19:38.036Z,29.81
2023-05-12T06:20:38.037Z,30.07
2023-05-12T06:21:38.081Z,30.20
2023-05-12T06:22:38.100Z,30.12
2023-05-12T06:23:38.120Z,30.00
2023-05-12T06:24:38.200Z,29.88
2023-05-12T06:25:38.153Z,29.79
2023-05-12T06:26:38.223Z,29.77
2023-05-12T06:27:38.272Z,29.71
2023-05-12T06:28:38.184Z,29.74
2023-05-12T06:29:38.225Z,29.70
2023-05-12T06:30:38.247Z,29.69
2023-05-12T06:31:38.286Z,29.61
2023-05-12T06:32:38.278Z,29.62
2023-05-12T06:33:39.228Z,29.69
2023-05-12T06:34:38.280Z,29.63
2023-05-12T06:35:38.279Z,29.35
2023-05-12T06:36:38.270Z,29.17
2023-05-12T06:37:38.327Z,29.09
2023-05-12T06:38:38.314Z,29.16
2023-05-12T06:39:38.335Z,29.18
2023-05-12T06:40:38.347Z,29.18
2023-05-12T06:41:38.382Z,29.20
2023-05-12T06:42:38.462Z,29.30
2023-05-12T06:43:38.666Z,29.22
2023-05-12T06:44:41.107Z,29.22
2023-05-12T06:45:38.619Z,29.12
2023-05-12T06:46:38.752Z,29.14
2023-05-12T06:47:38.684Z,29.37
2023-05-12T06:48:38.809Z,29.44
2023-05-12T06:49:38.781Z,29.72
2023-05-12T06:50:38.692Z,29.71
2023-05-12T06:51:38.817Z,29.61
2023-05-12T06:52:38.677Z,29.61
2023-05-12T06:53:38.857Z,29.60
2023-05-12T06:54:38.678Z,29.68
2023-05-12T06:55:38.686Z,29.65
2023-05-12T06:56:38.718Z,29.64
2023-05-12T06:57:38.780Z,29.64
2023-05-12T06:58:38.727Z,29.68
2023-05-12T06:59:38.729Z,29.71
2023-05-12T07:00:38.813Z,29.84
2023-05-12T07:01:38.831Z,29.96
2023-05-12T07:02:38.761Z,29.86
2023-05-12T07:03:38.823Z,30.12
2023-05-12T07:04:38.761Z,29.91
2023-05-12T07:05:38.865Z,29.88
2023-05-12T07:06:38.792Z,29.98
2023-05-12T07:07:38.745Z,29.91
2023-05-12T07:08:38.732Z,29.87
2023-05-12T07:09:38.741Z,29.81
2023-05-12T07:10:38.754Z,29.76
2023-05-12T07:11:38.777Z,29.77
2023-05-12T07:12:38.778Z,29.67
2023-05-12T07:13:38.817Z,29.69
2023-05-12T07:14:38.779Z,29.70
2023-05-12T07:15:38.859Z,29.63
2023-05-12T07:16:38.808Z,29.63
2023-05-12T07:17:40.789Z,29.60
2023-05-12T07:18:39.774Z,29.64
2023-05-12T07:19:38.917Z,29.57
2023-05-12T07:20:38.821Z,29.53
2023-05-12T07:21:38.860Z,29.57
2023-05-12T07:22:39.212Z,29.49
2023-05-12T07:23:38.926Z,29.52
2023-05-12T07:24:38.897Z,29.47
2023-05-12T07:25:39.031Z,29.40
2023-05-12T07:26:38.948Z,29.45
2023-05-12T07:27:39.318Z,29.41
2023-05-12T07:28:38.990Z,29.41
2023-05-12T07:29:38.971Z,29.40
2023-05-12T07:30:39.013Z,29.40
2023-05-12T07:31:39.806Z,29.38
2023-05-12T07:32:39.099Z,29.40
2023-05-12T07:33:39.068Z,29.36
2023-05-12T07:34:39.091Z,29.33
2023-05-12T07:35:39.125Z,29.29
2023-05-12T07:36:39.157Z,29.28
2023-05-12T07:37:39.191Z,29.28
2023-05-12T07:38:39.190Z,29.35
2023-05-12T07:39:39.195Z,29.31
2023-05-12T07:40:39.189Z,29.46
2023-05-12T07:41:39.185Z,29.54
2023-05-12T07:42:39.215Z,29.56
2023-05-12T07:43:39.206Z,29.58
2023-05-12T07:44:39.228Z,29.55
2023-05-12T07:45:39.232Z,29.52
2023-05-12T07:46:39.315Z,29.52
2023-05-12T07:47:39.584Z,29.56
2023-05-12T07:48:39.273Z,29.66
2023-05-12T07:49:39.271Z,29.61
2023-05-12T07:50:39.585Z,29.89
2023-05-12T07:51:39.361Z,30.23
2023-05-12T07:52:39.322Z,30.46
2023-05-12T07:53:39.339Z,30.80
2023-05-12T07:54:39.315Z,30.87
2023-05-12T07:55:39.335Z,31.14
2023-05-12T07:56:39.323Z,30.98
2023-05-12T07:57:39.315Z,31.19
2023-05-12T07:58:39.389Z,31.17
2023-05-12T07:59:39.405Z,31.30
2023-05-12T08:00:39.430Z,31.36
2023-05-12T08:01:39.568Z,31.39
2023-05-12T08:02:39.625Z,31.45
2023-05-12T08:03:39.702Z,31.70
2023-05-12T08:04:39.667Z,31.63
2023-05-12T08:05:39.674Z,31.69
2023-05-12T08:06:39.736Z,31.69
2023-05-12T08:07:41.210Z,31.67
2023-05-12T08:08:39.819Z,31.70
2023-05-12T08:09:40.325Z,31.57
2023-05-12T08:10:42.412Z,31.30
2023-05-12T08:11:39.936Z,31.47
2023-05-12T08:12:40.036Z,31.47
2023-05-12T08:13:39.925Z,31.63
2023-05-12T08:14:39.933Z,31.67
2023-05-12T08:15:40.119Z,31.94
2023-05-12T08:16:39.923Z,31.64
2023-05-12T08:17:39.915Z,31.54
2023-05-12T08:18:39.912Z,31.54
2023-05-12T08:19:39.871Z,31.53
2023-05-12T08:20:39.901Z,31.52
2023-05-12T08:21:39.922Z,31.43
2023-05-12T08:22:39.939Z,31.34
2023-05-12T08:23:39.857Z,31.30
2023-05-12T08:24:39.867Z,31.15
2023-05-12T08:25:39.861Z,31.15
2023-05-12T08:26:39.796Z,31.13
2023-05-12T08:27:39.852Z,31.05
2023-05-12T08:28:39.792Z,31.07
2023-05-12T08:29:39.810Z,31.02
2023-05-12T08:30:39.797Z,30.88
2023-05-12T08:31:39.812Z,30.95
2023-05-12T08:32:39.778Z,30.73
2023-05-12T08:33:39.789Z,30.53
2023-05-12T08:34:39.743Z,30.42
2023-05-12T08:35:39.733Z,30.29
2023-05-12T08:36:39.822Z,30.15
2023-05-12T08:37:39.708Z,29.97
2023-05-12T08:38:39.714Z,29.91
2023-05-12T08:39:39.745Z,29.79
2023-05-12T08:40:41.833Z,29.91
2023-05-12T08:41:39.884Z,29.89
2023-05-12T08:42:39.912Z,29.74
2023-05-12T08:43:39.930Z,29.87
2023-05-12T08:44:39.997Z,29.96
2023-05-12T08:45:40.065Z,30.03
2023-05-12T08:46:40.097Z,30.04
2023-05-12T08:47:40.117Z,30.02
2023-05-12T08:48:40.268Z,30.05
2023-05-12T08:49:40.233Z,30.09
2023-05-12T08:50:40.302Z,30.06
2023-05-12T08:51:40.448Z,30.05
2023-05-12T08:52:41.316Z,30.08
2023-05-12T08:53:42.421Z,29.99
2023-05-12T08:54:52.318Z,30.01
2023-05-12T08:55:42.595Z,29.94
2023-05-12T08:57:40.530Z,30.01
2023-05-12T08:58:42.079Z,29.89
2023-05-12T08:59:40.619Z,29.96
2023-05-12T09:00:40.550Z,29.93
2023-05-12T09:01:41.290Z,29.87
2023-05-12T09:02:52.148Z,29.84
2023-05-12T09:03:43.405Z,29.84
2023-05-12T09:04:40.429Z,29.81
2023-05-12T09:05:40.370Z,29.88
2023-05-12T09:06:40.542Z,29.87
2023-05-12T09:07:40.369Z,29.82
2023-05-12T09:08:40.383Z,29.80
2023-05-12T09:09:40.411Z,29.79
2023-05-12T09:10:40.323Z,29.84
2023-05-12T09:11:41.266Z,29.83
2023-05-12T09:12:40.307Z,29.81
2023-05-12T09:13:40.686Z,29.82
2023-05-12T09:14:40.296Z,29.77
2023-05-12T09:15:40.329Z,29.76
2023-05-12T09:16:41.892Z,29.77
2023-05-12T09:17:41.309Z,29.79
2023-05-12T09:18:40.297Z,29.76
2023-05-12T09:19:40.275Z,29.75
2023-05-12T09:20:40.805Z,29.77
2023-05-12T09:21:40.224Z,29.73
2023-05-12T09:22:40.186Z,29.75
2023-05-12T09:23:40.262Z,29.72
2023-05-12T09:24:40.131Z,29.69
2023-05-12T09:25:40.240Z,29.74
2023-05-12T09:26:40.140Z,29.72
2023-05-12T09:27:40.168Z,29.71
2023-05-12T09:28:40.105Z,29.70
2023-05-12T09:29:48.222Z,29.70
2023-05-12T09:30:40.083Z,29.71
2023-05-12T09:31:40.205Z,29.71
2023-05-12T09:32:40.103Z,29.64
2023-05-12T09:33:45.470Z,29.68
2023-05-12T09:34:40.097Z,29.65
2023-05-12T09:35:40.128Z,29.70
2023-05-12T09:36:40.132Z,29.65
2023-05-12T09:37:40.123Z,29.64
2023-05-12T09:38:40.125Z,29.65
2023-05-12T09:39:40.111Z,29.67
2023-05-12T09:40:40.063Z,29.63
2023-05-12T09:41:40.064Z,29.61
2023-05-12T09:42:40.022Z,29.64
2023-05-12T09:43:40.089Z,29.63
2023-05-12T09:44:40.065Z,29.64
2023-05-12T09:45:40.024Z,29.60
2023-05-12T09:46:40.007Z,29.59
2023-05-12T09:47:39.989Z,29.49
2023-05-12T09:48:40.366Z,29.67
2023-05-12T09:49:39.999Z,29.73
2023-05-12T09:50:47.395Z,29.87
2023-05-12T09:51:41.051Z,29.78
2023-05-12T09:52:40.007Z,29.83
2023-05-12T09:53:39.942Z,29.92
2023-05-12T09:54:39.902Z,29.89
2023-05-12T09:55:39.928Z,30.01
2023-05-12T09:56:39.893Z,30.15
2023-05-12T09:57:39.851Z,30.16
2023-05-12T09:58:39.881Z,30.28
2023-05-12T09:59:41.635Z,30.28
2023-05-12T10:01:05.966Z,30.35
2023-05-12T10:01:40.863Z,30.33
2023-05-12T10:02:39.813Z,30.47
2023-05-12T10:03:39.745Z,30.48
2023-05-12T10:04:39.860Z,30.58
2023-05-12T10:05:39.753Z,30.62
2023-05-12T10:06:39.700Z,30.65
2023-05-12T10:07:39.651Z,30.79
2023-05-12T10:08:39.652Z,30.74
2023-05-12T10:09:39.751Z,30.85
2023-05-12T10:10:39.711Z,30.88
2023-05-12T10:11:39.569Z,31.27
2023-05-12T10:12:39.594Z,31.44
2023-05-12T10:13:39.560Z,31.67
2023-05-12T10:14:39.523Z,31.40
2023-05-12T10:15:39.477Z,31.28
2023-05-12T10:16:39.497Z,31.11
2023-05-12T10:17:39.668Z,31.12
2023-05-12T10:18:39.561Z,30.86
2023-05-12T10:19:39.399Z,30.83
2023-05-12T10:20:39.364Z,30.86
2023-05-12T10:21:39.386Z,30.86
2023-05-12T10:22:39.334Z,30.83
2023-05-12T10:23:39.329Z,30.77
2023-05-12T10:24:39.445Z,30.65
2023-05-12T10:25:39.811Z,30.55
2023-05-12T10:26:39.286Z,30.48
2023-05-12T10:27:39.268Z,30.47
2023-05-12T10:28:39.240Z,30.46
2023-05-12T10:29:39.171Z,30.44
2023-05-12T10:30:39.203Z,30.36
2023-05-12T10:31:39.272Z,30.36
2023-05-12T10:32:39.187Z,30.25
2023-05-12T10:33:39.210Z,30.22
2023-05-12T10:34:39.123Z,30.15
2023-05-12T10:35:39.040Z,30.16
2023-05-12T10:36:39.818Z,30.15
2023-05-12T10:37:39.033Z,30.12
2023-05-12T10:38:38.995Z,30.04
2023-05-12T10:39:38.946Z,30.08
2023-05-12T10:40:38.963Z,30.05
2023-05-12T10:41:38.898Z,30.05
2023-05-12T10:42:38.901Z,30.18
2023-05-12T10:43:38.854Z,30.11
2023-05-12T10:44:38.871Z,30.11
2023-05-12T10:45:38.994Z,30.08
2023-05-12T10:46:38.867Z,30.14
2023-05-12T10:47:38.860Z,29.98
2023-05-12T10:48:38.822Z,30.38
2023-05-12T10:49:38.877Z,30.45
2023-05-12T10:50:38.825Z,30.61
2023-05-12T10:51:38.906Z,30.56
2023-05-12T10:52:39.626Z,30.72
2023-05-12T10:53:49.182Z,30.71
2023-05-12T10:54:39.801Z,30.78
2023-05-12T10:55:38.922Z,30.79
2023-05-12T10:56:38.948Z,30.85
2023-05-12T10:57:39.071Z,30.95
2023-05-12T10:58:39.678Z,31.03
2023-05-12T10:59:38.931Z,31.00
2023-05-12T11:00:38.997Z,31.10
2023-05-12T11:01:39.486Z,30.92
2023-05-12T11:02:39.864Z,31.17
2023-05-12T11:03:39.633Z,31.44
2023-05-12T11:04:38.661Z,31.42
2023-05-12T11:05:38.677Z,31.29
2023-05-12T11:06:39.753Z,31.38
2023-05-12T11:07:39.783Z,31.51
2023-05-12T11:08:39.988Z,31.61
2023-05-12T11:09:43.429Z,31.74
2023-05-12T11:10:39.769Z,31.78
2023-05-12T11:11:54.256Z,31.80
2023-05-12T11:12:42.104Z,31.88
2023-05-12T11:13:38.290Z,31.89
2023-05-12T11:14:38.310Z,31.97
2023-05-12T11:15:38.246Z,31.97
2023-05-12T11:16:38.324Z,31.94
2023-05-12T11:17:38.284Z,31.96
2023-05-12T11:18:38.216Z,32.14
2023-05-12T11:19:38.147Z,32.09
2023-05-12T11:20:38.087Z,32.24
2023-05-12T11:21:38.077Z,32.21
2023-05-12T11:22:38.049Z,32.06
2023-05-12T11:23:38.037Z,32.23
2023-05-12T11:24:38.843Z,32.21
2023-05-12T11:25:38.025Z,32.05
2023-05-12T11:26:37.956Z,31.95
2023-05-12T11:27:38.058Z,31.86
2023-05-12T11:28:38.869Z,31.85
2023-05-12T11:29:38.950Z,31.73
2023-05-12T11:30:37.870Z,31.67
2023-05-12T11:31:37.839Z,31.57
2023-05-12T11:32:37.996Z,31.52
2023-05-12T11:33:37.752Z,31.46
2023-05-12T11:34:37.731Z,31.49
2023-05-12T11:35:37.703Z,31.47
2023-05-12T11:36:37.692Z,31.40
2023-05-12T11:37:37.731Z,31.44
2023-05-12T11:38:37.660Z,31.34
2023-05-12T11:39:37.636Z,31.30
2023-05-12T11:40:37.728Z,31.33
2023-05-12T11:41:38.321Z,31.30
2023-05-12T11:42:37.638Z,31.30
2023-05-12T11:43:37.516Z,31.29
2023-05-12T11:44:37.545Z,31.29
2023-05-12T11:45:37.471Z,31.33
2023-05-12T11:46:37.636Z,31.38
2023-05-12T11:47:37.468Z,31.39
2023-05-12T11:48:37.381Z,31.32
2023-05-12T11:49:37.358Z,31.29
2023-05-12T11:50:37.358Z,31.26
2023-05-12T11:51:37.330Z,31.26
2023-05-12T11:52:37.309Z,31.23
2023-05-12T11:53:37.303Z,31.21
2023-05-12T11:54:37.253Z,31.23
2023-05-12T11:55:37.243Z,31.17
2023-05-12T11:56:37.204Z,31.17
2023-05-12T11:57:37.308Z,31.17
2023-05-12T11:58:37.153Z,31.16
2023-05-12T11:59:37.176Z,31.15
2023-05-12T12:00:37.130Z,31.15
2023-05-12T12:01:37.111Z,31.16
2023-05-12T12:02:37.218Z,31.11
2023-05-12T12:03:37.278Z,31.12
2023-05-12T12:04:37.110Z,31.10
2023-05-12T12:05:37.081Z,31.05
2023-05-12T12:06:37.114Z,31.14
2023-05-12T12:07:37.327Z,31.16
2023-05-12T12:08:37.220Z,31.19
2023-05-12T12:09:37.221Z,31.21
2023-05-12T12:10:37.221Z,31.32
2023-05-12T12:11:37.289Z,31.43
2023-05-12T12:12:37.303Z,31.50
2023-05-12T12:13:37.296Z,31.68
2023-05-12T12:14:38.411Z,31.70
2023-05-12T12:15:37.394Z,31.86
2023-05-12T12:16:37.420Z,31.93
2023-05-12T12:17:37.356Z,32.01
2023-05-12T12:18:37.426Z,32.14
2023-05-12T12:19:37.533Z,32.15
2023-05-12T12:20:37.443Z,32.14
2023-05-12T12:21:37.599Z,32.24
2023-05-12T12:22:37.527Z,32.25
2023-05-12T12:23:50.001Z,32.27
2023-05-12T12:24:38.544Z,32.31
2023-05-12T12:25:37.489Z,32.34
2023-05-12T12:26:39.389Z,32.37
2023-05-12T12:27:37.464Z,32.36
2023-05-12T12:28:37.418Z,32.32
2023-05-12T12:29:37.427Z,32.32
2023-05-12T12:30:37.426Z,32.35
2023-05-12T12:31:37.524Z,32.32
2023-05-12T12:32:37.485Z,32.33
2023-05-12T12:33:37.714Z,32.28
2023-05-12T12:34:37.541Z,32.31
2023-05-12T12:35:37.677Z,32.35
2023-05-12T12:36:37.710Z,32.31
2023-05-12T12:37:37.715Z,32.27
2023-05-12T12:38:37.727Z,32.30
2023-05-12T12:39:37.784Z,32.24
2023-05-12T12:40:37.784Z,32.23
2023-05-12T12:41:37.895Z,32.24
2023-05-12T12:42:37.852Z,32.23
2023-05-12T12:43:37.942Z,32.17
2023-05-12T12:44:37.991Z,32.16
2023-05-12T12:45:38.029Z,32.16
2023-05-12T12:46:38.031Z,32.16
2023-05-12T12:47:38.228Z,32.10
2023-05-12T12:48:38.121Z,32.08
2023-05-12T12:49:38.153Z,32.05
2023-05-12T12:50:38.171Z,32.05
2023-05-12T12:51:45.625Z,31.98
2023-05-12T12:52:39.192Z,32.02
2023-05-12T12:53:38.155Z,32.00
2023-05-12T12:54:38.148Z,32.02
2023-05-12T12:55:38.128Z,32.00